createdAt,value
2023-01-17T00:02:45.409Z,17.27
2023-01-17T00:06:06.260Z,17.26
2023-01-17T00:09:30.129Z,17.26
2023-01-17T00:12:32.384Z,17.25
2023-01-17T00:15:34.734Z,17.27
2023-01-17T00:18:36.735Z,17.21
2023-01-17T00:21:57.484Z,17.13
2023-01-17T00:25:18.315Z,17.01
2023-01-17T00:28:20.192Z,16.91
2023-01-17T00:31:22.343Z,16.83
2023-01-17T00:34:24.357Z,16.84
2023-01-17T00:37:26.884Z,16.78
2023-01-17T00:40:31.653Z,16.82
2023-01-17T00:43:52.975Z,16.74
2023-01-17T00:47:14.206Z,16.71
2023-01-17T00:50:35.545Z,16.77
2023-01-17T00:53:57.070Z,16.66
2023-01-17T00:57:17.684Z,16.65
2023-01-17T01:00:38.533Z,16.56
2023-01-17T01:03:58.787Z,16.66
2023-01-17T01:07:19.748Z,16.63
2023-01-17T01:10:40.559Z,16.64
2023-01-17T01:14:02.052Z,16.60
2023-01-17T01:17:23.267Z,16.40
2023-01-17T01:20:44.251Z,16.39
2023-01-17T01:24:04.936Z,16.42
2023-01-17T01:27:25.817Z,16.51
2023-01-17T01:30:46.581Z,16.49
2023-01-17T01:33:48.764Z,16.43
2023-01-17T01:36:50.821Z,16.27
2023-01-17T01:39:52.809Z,16.28
2023-01-17T01:42:57.561Z,16.28
2023-01-17T01:45:59.917Z,16.19
2023-01-17T01:49:19.378Z,16.00
2023-01-17T01:52:25.265Z,16.30
2023-01-17T01:55:38.171Z,16.24
2023-01-17T01:58:42.123Z,16.23
2023-01-17T02:01:48.382Z,16.23
2023-01-17T02:04:53.798Z,16.29
2023-01-17T02:08:08.722Z,16.25
2023-01-17T02:11:11.797Z,16.29
2023-01-17T02:14:20.879Z,16.24
2023-01-17T02:17:40.753Z,16.23
2023-01-17T02:21:04.138Z,16.23
2023-01-17T02:24:31.559Z,16.19
2023-01-17T02:28:01.191Z,16.16
2023-01-17T02:31:08.239Z,16.15
2023-01-17T02:34:20.715Z,16.19
2023-01-17T02:37:29.122Z,16.17
2023-01-17T02:40:47.895Z,16.15
2023-01-17T02:43:52.429Z,16.17
2023-01-17T02:46:58.075Z,16.18
2023-01-17T02:50:14.162Z,16.12
2023-01-17T02:53:27.977Z,16.13
2023-01-17T02:57:08.571Z,16.10
2023-01-17T03:00:29.690Z,16.15
2023-01-17T03:03:50.621Z,16.18
2023-01-17T03:06:59.935Z,16.16
2023-01-17T03:10:05.112Z,16.13
2023-01-17T03:13:07.346Z,16.09
2023-01-17T03:16:22.102Z,16.11
2023-01-17T03:19:25.471Z,15.98
2023-01-17T03:22:27.618Z,15.91
2023-01-17T03:25:29.772Z,15.93
2023-01-17T03:28:32.807Z,15.96
2023-01-17T03:31:34.807Z,15.84
2023-01-17T03:34:36.919Z,15.91
2023-01-17T03:37:39.026Z,15.88
2023-01-17T03:40:42.008Z,15.89
2023-01-17T03:43:44.114Z,15.87
2023-01-17T03:46:46.263Z,15.88
2023-01-17T03:49:49.079Z,15.96
2023-01-17T03:52:51.601Z,15.86
2023-01-17T03:55:53.740Z,15.96
2023-01-17T03:58:58.615Z,15.82
2023-01-17T04:02:01.801Z,15.94
2023-01-17T04:05:04.575Z,15.89
2023-01-17T04:08:07.379Z,15.98
2023-01-17T04:11:10.554Z,15.91
2023-01-17T04:14:13.641Z,15.87
2023-01-17T04:17:19.916Z,15.85
2023-01-17T04:20:32.419Z,15.69
2023-01-17T04:23:36.212Z,15.85
2023-01-17T04:26:38.236Z,16.64
2023-01-17T04:29:41.283Z,17.26
2023-01-17T04:32:43.415Z,18.02
2023-01-17T04:35:45.528Z,17.93
2023-01-17T04:38:47.600Z,18.34
2023-01-17T04:41:49.691Z,18.66
2023-01-17T04:44:54.671Z,18.61
2023-01-17T04:47:56.701Z,18.70
2023-01-17T04:51:02.964Z,19.06
2023-01-17T04:54:05.145Z,18.88
2023-01-17T04:57:07.377Z,18.65
2023-01-17T05:00:12.729Z,18.81
2023-01-17T05:03:44.101Z,19.14
2023-01-17T05:06:51.454Z,18.94
2023-01-17T05:09:53.711Z,19.05
2023-01-17T05:12:58.729Z,19.17
2023-01-17T05:16:01.190Z,19.46
2023-01-17T05:19:03.789Z,19.53
2023-01-17T05:22:16.253Z,19.40
2023-01-17T05:25:20.169Z,19.48
2023-01-17T05:28:22.278Z,19.44
2023-01-17T05:31:24.723Z,19.21
2023-01-17T05:34:27.406Z,19.16
2023-01-17T05:37:29.847Z,19.02
2023-01-17T05:40:33.756Z,18.88
2023-01-17T05:43:35.997Z,18.78
2023-01-17T05:46:41.021Z,18.84
2023-01-17T05:49:45.845Z,18.70
2023-01-17T05:53:04.380Z,18.57
2023-01-17T05:56:07.496Z,18.49
2023-01-17T05:59:10.786Z,18.23
2023-01-17T06:02:13.711Z,18.29
2023-01-17T06:05:16.697Z,18.23
2023-01-17T06:08:20.186Z,18.05
2023-01-17T06:11:22.206Z,17.95
2023-01-17T06:14:24.210Z,17.86
2023-01-17T06:17:26.255Z,17.84
2023-01-17T06:20:28.688Z,17.89
2023-01-17T06:23:30.893Z,18.01
2023-01-17T06:26:33.708Z,17.90
2023-01-17T06:29:35.756Z,17.89
2023-01-17T06:32:37.903Z,17.82
2023-01-17T06:35:41.483Z,18.05
2023-01-17T06:38:46.483Z,18.43
2023-01-17T06:41:48.421Z,18.56
2023-01-17T06:44:53.422Z,19.63
2023-01-17T06:47:57.281Z,21.40
2023-01-17T06:51:00.731Z,22.71
2023-01-17T06:54:04.542Z,21.81
2023-01-17T06:57:09.665Z,20.79
2023-01-17T07:00:12.431Z,20.16
2023-01-17T07:03:40.414Z,19.94
2023-01-17T07:06:42.946Z,19.64
2023-01-17T07:09:46.344Z,19.40
2023-01-17T07:12:51.888Z,19.52
2023-01-17T07:15:56.184Z,19.40
2023-01-17T07:19:02.443Z,19.21
2023-01-17T07:22:05.677Z,19.18
2023-01-17T07:25:09.435Z,19.16
2023-01-17T07:28:13.607Z,19.01
2023-01-17T07:31:19.905Z,18.97
2023-01-17T07:34:25.472Z,18.84
2023-01-17T07:37:28.379Z,18.72
2023-01-17T07:40:31.171Z,18.69
2023-01-17T07:43:35.879Z,18.48
2023-01-17T07:46:37.939Z,18.50
2023-01-17T07:49:41.015Z,18.41
2023-01-17T07:52:48.907Z,18.43
2023-01-17T07:55:52.351Z,18.36
2023-01-17T07:58:57.572Z,18.28
2023-01-17T08:02:00.703Z,18.17
2023-01-17T08:05:05.120Z,18.23
2023-01-17T08:08:07.992Z,18.37
2023-01-17T08:11:10.823Z,18.25
2023-01-17T08:14:14.020Z,18.32
2023-01-17T08:17:21.995Z,18.27
2023-01-17T08:23:48.895Z,18.27
2023-01-17T08:26:55.738Z,18.13
2023-01-17T08:29:59.996Z,18.14
2023-01-17T08:33:02.165Z,18.15
2023-01-17T08:36:04.787Z,18.26
2023-01-17T08:39:06.915Z,18.25
2023-01-17T08:42:09.562Z,18.70
2023-01-17T08:45:15.348Z,18.70
2023-01-17T08:48:23.251Z,19.20
2023-01-17T08:51:27.336Z,19.75
2023-01-17T08:54:33.874Z,20.12
2023-01-17T08:57:36.550Z,20.42
2023-01-17T09:00:41.176Z,20.70
2023-01-17T09:03:43.459Z,20.84
2023-01-17T09:06:47.504Z,20.79
2023-01-17T09:09:49.796Z,20.99
2023-01-17T09:12:54.354Z,21.02
2023-01-17T09:16:05.413Z,21.09
2023-01-17T09:19:07.567Z,21.14
2023-01-17T09:22:54.020Z,21.15
2023-01-17T09:26:04.230Z,21.37
2023-01-17T09:29:08.506Z,21.37
2023-01-17T09:32:12.420Z,21.32
2023-01-17T09:35:14.835Z,21.24
2023-01-17T09:38:19.119Z,21.03
2023-01-17T09:41:29.960Z,20.93
2023-01-17T09:44:45.365Z,20.97
2023-01-17T09:47:52.836Z,21.05
2023-01-17T09:51:13.132Z,21.01
2023-01-17T09:54:25.062Z,21.33
2023-01-17T09:57:40.633Z,21.46
2023-01-17T10:01:13.372Z,21.46
2023-01-17T10:05:04.103Z,21.45
2023-01-17T10:08:21.297Z,21.52
2023-01-17T10:11:32.221Z,21.37
2023-01-17T10:14:49.136Z,21.10
2023-01-17T10:18:28.928Z,21.00
2023-01-17T10:22:02.812Z,20.83
2023-01-17T10:25:32.083Z,20.74
2023-01-17T10:32:11.124Z,20.51
2023-01-17T10:35:29.943Z,20.50
2023-01-17T10:38:36.401Z,20.64
2023-01-17T10:41:44.825Z,20.79
2023-01-17T10:45:03.182Z,20.85
2023-01-17T10:48:45.229Z,20.96
2023-01-17T10:52:02.801Z,21.04
2023-01-17T10:55:14.433Z,21.00
2023-01-17T10:58:19.995Z,20.94
2023-01-17T11:01:26.445Z,20.94
2023-01-17T11:04:37.190Z,20.88
2023-01-17T11:07:58.262Z,20.76
2023-01-17T11:11:06.916Z,20.68
2023-01-17T11:14:19.787Z,20.60
2023-01-17T11:17:22.824Z,21.35
2023-01-17T11:20:40.985Z,21.60
2023-01-17T11:23:45.911Z,21.15
2023-01-17T11:26:50.012Z,20.77
2023-01-17T11:30:20.145Z,20.52
2023-01-17T11:33:58.001Z,20.32
2023-01-17T11:37:20.550Z,20.19
2023-01-17T11:40:38.699Z,20.09
2023-01-17T11:43:59.277Z,20.04
2023-01-17T11:47:19.444Z,20.00
2023-01-17T11:50:35.666Z,19.96
2023-01-17T11:53:46.993Z,19.94
2023-01-17T11:56:53.269Z,19.89
2023-01-17T12:00:27.615Z,19.88
2023-01-17T12:03:49.457Z,19.91
2023-01-17T12:06:58.620Z,19.85
2023-01-17T12:10:07.378Z,19.74
2023-01-17T12:13:45.534Z,19.75
2023-01-17T12:17:14.165Z,19.66
2023-01-17T12:20:30.889Z,19.55
2023-01-17T12:24:22.159Z,19.54
2023-01-17T12:27:50.031Z,19.53
2023-01-17T12:31:13.630Z,19.46
2023-01-17T12:34:30.356Z,19.46
2023-01-17T12:37:43.412Z,19.45
2023-01-17T12:41:01.103Z,19.43
2023-01-17T12:44:03.183Z,19.37
2023-01-17T12:47:06.196Z,19.35
2023-01-17T12:50:27.057Z,19.32
2023-01-17T12:53:41.046Z,19.28
2023-01-17T12:56:51.484Z,19.24
2023-01-17T13:00:08.472Z,19.37
2023-01-17T13:03:58.325Z,19.30
2023-01-17T13:07:00.659Z,19.24
2023-01-17T13:10:19.369Z,19.09
2023-01-17T13:13:26.711Z,19.06
2023-01-17T13:16:54.811Z,19.00
2023-01-17T13:20:03.962Z,18.97
2023-01-17T13:23:30.790Z,18.96
2023-01-17T13:26:51.136Z,18.96
2023-01-17T13:30:36.754Z,18.95
2023-01-17T13:33:53.856Z,18.98
2023-01-17T13:36:58.828Z,19.00
2023-01-17T13:40:22.694Z,19.02
2023-01-17T13:43:30.591Z,18.92
2023-01-17T13:46:55.745Z,18.96
2023-01-17T13:49:58.493Z,18.89
2023-01-17T13:53:00.891Z,18.95
2023-01-17T13:56:10.970Z,18.96
2023-01-17T13:59:35.398Z,19.00
2023-01-17T14:02:40.609Z,18.98
2023-01-17T14:09:44.054Z,18.98
2023-01-17T14:12:49.795Z,18.97
2023-01-17T14:15:52.406Z,18.96
2023-01-17T14:18:55.937Z,19.00
2023-01-17T14:22:22.677Z,18.97
2023-01-17T14:25:28.756Z,18.93
2023-01-17T14:28:33.037Z,18.82
2023-01-17T14:31:35.912Z,19.15
2023-01-17T14:34:38.226Z,19.63
2023-01-17T14:37:52.213Z,19.60
2023-01-17T14:40:58.773Z,19.68
2023-01-17T14:44:03.255Z,19.89
2023-01-17T14:47:05.882Z,19.94
2023-01-17T14:50:21.697Z,19.94
2023-01-17T14:53:28.825Z,19.91
2023-01-17T14:56:32.078Z,19.92
2023-01-17T14:59:35.529Z,20.06
2023-01-17T15:02:44.983Z,20.14
2023-01-17T15:05:51.401Z,20.79
2023-01-17T15:08:54.342Z,21.27
2023-01-17T15:12:04.769Z,21.15
2023-01-17T15:15:35.519Z,20.75
2023-01-17T15:18:42.657Z,20.39
2023-01-17T15:21:51.586Z,20.14
2023-01-17T15:24:56.180Z,19.95
2023-01-17T15:27:58.525Z,19.98
2023-01-17T15:31:13.730Z,19.90
2023-01-17T15:34:34.761Z,19.77
2023-01-17T15:37:43.143Z,20.03
2023-01-17T15:40:47.586Z,20.09
2023-01-17T15:43:52.596Z,19.81
2023-01-17T15:46:55.407Z,19.68
2023-01-17T15:49:58.297Z,19.90
2023-01-17T15:53:28.526Z,19.91
2023-01-17T15:56:33.225Z,19.63
2023-01-17T15:59:55.956Z,19.60
2023-01-17T16:02:59.744Z,19.39
2023-01-17T16:06:03.283Z,19.59
2023-01-17T16:09:21.059Z,19.56
2023-01-17T16:12:23.741Z,19.38
2023-01-17T16:15:27.371Z,19.37
2023-01-17T16:18:30.621Z,19.48
2023-01-17T16:21:33.005Z,19.46
2023-01-17T16:24:45.353Z,19.45
2023-01-17T16:27:53.199Z,19.34
2023-01-17T16:30:55.907Z,19.62
2023-01-17T16:33:59.700Z,19.42
2023-01-17T16:37:04.527Z,19.25
2023-01-17T16:40:07.264Z,19.32
2023-01-17T16:43:12.483Z,19.66
2023-01-17T16:46:15.665Z,19.73
2023-01-17T16:49:18.863Z,19.43
2023-01-17T16:52:20.927Z,19.30
2023-01-17T16:55:25.312Z,19.35
2023-01-17T16:58:27.349Z,19.51
2023-01-17T17:01:30.189Z,19.72
2023-01-17T17:04:33.243Z,19.73
2023-01-17T17:07:46.374Z,19.84
2023-01-17T17:10:48.451Z,19.87
2023-01-17T17:13:57.443Z,19.86
2023-01-17T17:17:08.601Z,19.77
2023-01-17T17:20:14.739Z,19.65
2023-01-17T17:23:16.787Z,19.73
2023-01-17T17:26:18.937Z,19.71
2023-01-17T17:29:21.255Z,19.69
2023-01-17T17:32:26.962Z,19.48
2023-01-17T17:35:28.924Z,19.59
2023-01-17T17:38:35.224Z,19.46
2023-01-17T17:41:40.750Z,19.36
2023-01-17T17:44:42.939Z,19.41
2023-01-17T17:47:45.197Z,19.87
2023-01-17T17:50:58.822Z,19.59
2023-01-17T17:54:08.036Z,19.27
2023-01-17T17:57:12.543Z,19.34
2023-01-17T18:00:18.824Z,19.49
2023-01-17T18:03:21.020Z,19.42
2023-01-17T18:06:25.357Z,19.24
2023-01-17T18:09:29.159Z,18.85
2023-01-17T18:12:33.839Z,19.02
2023-01-17T18:15:49.942Z,19.29
2023-01-17T18:18:55.256Z,19.87
2023-01-17T18:21:58.335Z,20.42
2023-01-17T18:25:02.379Z,20.58
2023-01-17T18:31:25.736Z,20.80
2023-01-17T18:34:29.497Z,20.75
2023-01-17T18:37:31.615Z,20.72
2023-01-17T18:40:36.147Z,20.43
2023-01-17T18:43:38.693Z,20.32
2023-01-17T18:46:46.339Z,20.24
2023-01-17T18:49:53.870Z,20.33
2023-01-17T18:52:56.503Z,20.39
2023-01-17T18:56:02.879Z,20.24
2023-01-17T18:59:06.933Z,20.36
2023-01-17T19:02:09.655Z,20.17
2023-01-17T19:05:15.671Z,20.13
2023-01-17T19:08:17.795Z,19.79
2023-01-17T19:11:21.391Z,19.77
2023-01-17T19:14:23.459Z,19.84
2023-01-17T19:17:25.519Z,19.80
2023-01-17T19:20:27.715Z,19.73
2023-01-17T19:23:35.756Z,19.80
2023-01-17T19:26:38.067Z,19.65
2023-01-17T19:29:42.905Z,19.63
2023-01-17T19:32:52.230Z,19.44
2023-01-17T19:35:58.968Z,19.60
2023-01-17T19:39:06.263Z,19.50
2023-01-17T19:42:15.615Z,19.40
2023-01-17T19:45:17.856Z,19.30
2023-01-17T19:48:20.353Z,19.80
2023-01-17T19:51:24.137Z,19.67
2023-01-17T19:54:26.292Z,19.14
2023-01-17T19:57:34.961Z,19.08
2023-01-17T20:00:46.137Z,19.62
2023-01-17T20:03:51.685Z,19.30
2023-01-17T20:06:54.322Z,19.16
2023-01-17T20:09:56.540Z,19.36
2023-01-17T20:12:59.109Z,19.38
2023-01-17T20:16:05.376Z,19.58
2023-01-17T20:19:08.615Z,19.64
2023-01-17T20:22:11.177Z,19.52
2023-01-17T20:25:13.286Z,19.53
2023-01-17T20:28:15.432Z,19.42
2023-01-17T20:31:23.054Z,19.35
2023-01-17T20:34:30.352Z,19.14
2023-01-17T20:37:32.600Z,18.93
2023-01-17T20:40:39.591Z,18.84
2023-01-17T20:43:43.238Z,18.68
2023-01-17T20:46:48.092Z,18.48
2023-01-17T20:49:53.643Z,18.47
2023-01-17T20:52:56.706Z,18.29
2023-01-17T20:55:59.206Z,18.30
2023-01-17T20:59:03.799Z,18.31
2023-01-17T21:02:06.772Z,18.27
2023-01-17T21:05:13.492Z,18.14
2023-01-17T21:08:18.606Z,18.01
2023-01-17T21:11:24.040Z,17.82
2023-01-17T21:14:32.074Z,17.77
2023-01-17T21:17:36.129Z,17.77
2023-01-17T21:20:38.802Z,17.62
2023-01-17T21:23:42.600Z,17.76
2023-01-17T21:26:47.410Z,17.70
2023-01-17T21:29:49.439Z,17.67
2023-01-17T21:32:51.528Z,17.63
2023-01-17T21:35:53.652Z,17.63
2023-01-17T21:39:00.049Z,17.63
2023-01-17T21:42:02.475Z,17.60
2023-01-17T21:45:06.490Z,17.59
2023-01-17T21:48:14.732Z,17.60
2023-01-17T21:51:17.107Z,17.54
2023-01-17T21:54:47.474Z,17.52
2023-01-17T21:58:08.910Z,17.61
2023-01-17T22:01:21.757Z,17.59
2023-01-17T22:04:25.928Z,17.62
2023-01-17T22:07:30.539Z,17.54
2023-01-17T22:10:33.447Z,17.49
2023-01-17T22:13:36.426Z,17.46
2023-01-17T22:16:41.019Z,17.49
2023-01-17T22:19:43.395Z,17.39
2023-01-17T22:22:47.518Z,17.42
2023-01-17T22:25:50.903Z,17.34
2023-01-17T22:28:53.614Z,17.30
2023-01-17T22:32:00.974Z,17.19
2023-01-17T22:35:06.704Z,17.24
2023-01-17T22:38:16.293Z,17.22
2023-01-17T22:41:30.044Z,17.29
2023-01-17T22:44:32.377Z,17.20
2023-01-17T22:47:35.522Z,17.34
2023-01-17T22:50:37.841Z,17.12
2023-01-17T22:53:47.420Z,17.03
2023-01-17T22:56:49.628Z,17.02
2023-01-17T22:59:53.220Z,16.90
2023-01-17T23:02:57.258Z,16.83
2023-01-17T23:06:16.847Z,16.87
2023-01-17T23:09:21.167Z,16.94
2023-01-17T23:12:23.264Z,16.85
2023-01-17T23:15:44.050Z,16.72
2023-01-17T23:19:04.836Z,16.75
2023-01-17T23:22:19.438Z,16.92
2023-01-17T23:25:22.547Z,16.83
2023-01-17T23:28:25.575Z,16.81
2023-01-17T23:31:30.232Z,16.76
2023-01-17T23:34:32.555Z,16.69
2023-01-17T23:37:53.589Z,16.64
2023-01-17T23:41:26.981Z,16.58
2023-01-17T23:44:31.971Z,16.48
2023-01-17T23:47:34.092Z,16.77
2023-01-17T23:50:44.337Z,16.99
2023-01-17T23:53:46.453Z,17.29
2023-01-17T23:56:51.264Z,17.38
2023-01-17T23:59:55.044Z,17.53
